Hopatcong, New Jersey
Current Conditions -  °F | °C
As of 6:45 AM on Friday 19 Dec 2014 (Local Time) from KMMU Reporting Station
Overcast Overcast  
Wind Chill: 33°   Ceiling: 3500
Heat Index: 37°   Visibility: 10mi
Dew Point: 25°   Wind: 6mph
Humidity: 60%   Direction: 340°NNW
Pressure: 30.01"   Gusts: 16mph
Location:  40.94°N, 74.66°W
Report Text: KMMU 191145Z 34005G14KT 10SM OVC035 03/M04 A3001
Loading
Personal Weather Stations






























Interactive Weather Map New forecast layout! Learn more

10-Day Weather Forecast

Advertisements
Track Severe Weather on mobile